sensor_id;sensor_type;location;lat;lon;timestamp;noise_LAeq;noise_LA_min;noise_LA_max;noise_LA01;noise_LA95
72736;Laerm;60856;53.238;10.448;2023-07-16T00:02:19;55.22;53.99;56.32;;
72736;Laerm;60856;53.238;10.448;2023-07-16T00:04:45;55.22;54.10;56.32;;
72736;Laerm;60856;53.238;10.448;2023-07-16T00:07:10;55.20;54.09;56.26;;
72736;Laerm;60856;53.238;10.448;2023-07-16T00:09:35;55.21;54.14;56.30;;
72736;Laerm;60856;53.238;10.448;2023-07-16T00:12:01;55.20;54.19;56.30;;
72736;Laerm;60856;53.238;10.448;2023-07-16T00:14:26;55.22;54.16;56.30;;
72736;Laerm;60856;53.238;10.448;2023-07-16T00:16:51;55.21;54.18;56.24;;
72736;Laerm;60856;53.238;10.448;2023-07-16T00:19:23;55.20;54.09;56.34;;
72736;Laerm;60856;53.238;10.448;2023-07-16T00:21:48;55.19;54.14;56.29;;
72736;Laerm;60856;53.238;10.448;2023-07-16T00:24:13;55.18;54.18;56.11;;
72736;Laerm;60856;53.238;10.448;2023-07-16T00:26:38;55.20;54.14;56.29;;
72736;Laerm;60856;53.238;10.448;2023-07-16T00:29:04;55.19;54.11;56.22;;
72736;Laerm;60856;53.238;10.448;2023-07-16T00:31:29;55.19;53.92;56.18;;
72736;Laerm;60856;53.238;10.448;2023-07-16T00:33:54;55.19;54.05;56.20;;
72736;Laerm;60856;53.238;10.448;2023-07-16T00:36:19;55.18;53.91;56.26;;
72736;Laerm;60856;53.238;10.448;2023-07-16T00:38:47;55.17;54.15;56.24;;
72736;Laerm;60856;53.238;10.448;2023-07-16T00:41:13;55.16;54.02;56.20;;
72736;Laerm;60856;53.238;10.448;2023-07-16T00:43:38;55.17;54.03;56.31;;
72736;Laerm;60856;53.238;10.448;2023-07-16T00:46:03;55.18;54.04;56.34;;
72736;Laerm;60856;53.238;10.448;2023-07-16T00:48:28;55.17;53.99;56.20;;
72736;Laerm;60856;53.238;10.448;2023-07-16T00:50:54;55.18;53.99;56.41;;
72736;Laerm;60856;53.238;10.448;2023-07-16T00:53:20;55.17;54.12;56.08;;
72736;Laerm;60856;53.238;10.448;2023-07-16T00:55:46;55.16;53.89;56.31;;
72736;Laerm;60856;53.238;10.448;2023-07-16T00:58:11;55.15;54.09;56.40;;
72736;Laerm;60856;53.238;10.448;2023-07-16T01:00:37;55.15;54.14;56.20;;
72736;Laerm;60856;53.238;10.448;2023-07-16T01:03:03;55.13;54.01;56.09;;
72736;Laerm;60856;53.238;10.448;2023-07-16T01:05:31;55.14;54.11;56.51;;
72736;Laerm;60856;53.238;10.448;2023-07-16T01:08:01;55.15;54.02;56.29;;
72736;Laerm;60856;53.238;10.448;2023-07-16T01:10:28;55.13;54.07;56.34;;
72736;Laerm;60856;53.238;10.448;2023-07-16T01:12:54;55.13;54.11;56.06;;
72736;Laerm;60856;53.238;10.448;2023-07-16T01:15:20;55.11;54.12;56.31;;
72736;Laerm;60856;53.238;10.448;2023-07-16T01:17:45;55.11;54.13;56.13;;
72736;Laerm;60856;53.238;10.448;2023-07-16T01:20:10;55.11;54.10;56.47;;
72736;Laerm;60856;53.238;10.448;2023-07-16T01:30:08;55.09;53.94;56.15;;
72736;Laerm;60856;53.238;10.448;2023-07-16T01:32:34;55.11;54.06;56.30;;
72736;Laerm;60856;53.238;10.448;2023-07-16T01:35:00;55.10;54.02;56.24;;
72736;Laerm;60856;53.238;10.448;2023-07-16T01:37:27;55.09;54.10;56.26;;
72736;Laerm;60856;53.238;10.448;2023-07-16T01:39:52;55.09;54.00;56.11;;
72736;Laerm;60856;53.238;10.448;2023-07-16T01:42:18;55.08;54.05;56.25;;
72736;Laerm;60856;53.238;10.448;2023-07-16T01:44:43;55.08;53.80;56.19;;
72736;Laerm;60856;53.238;10.448;2023-07-16T01:47:23;55.08;54.04;56.20;;
72736;Laerm;60856;53.238;10.448;2023-07-16T01:49:49;55.06;53.91;56.10;;
72736;Laerm;60856;53.238;10.448;2023-07-16T01:52:14;55.06;53.92;56.09;;
72736;Laerm;60856;53.238;10.448;2023-07-16T01:54:39;55.06;53.85;56.16;;
72736;Laerm;60856;53.238;10.448;2023-07-16T01:57:05;55.06;53.99;56.38;;
72736;Laerm;60856;53.238;10.448;2023-07-16T01:59:30;55.05;53.90;56.34;;
72736;Laerm;60856;53.238;10.448;2023-07-16T02:01:56;55.04;53.76;56.02;;
72736;Laerm;60856;53.238;10.448;2023-07-16T02:04:21;55.05;53.84;56.20;;
72736;Laerm;60856;53.238;10.448;2023-07-16T02:06:46;55.06;54.05;56.11;;
72736;Laerm;60856;53.238;10.448;2023-07-16T02:09:13;55.06;53.94;56.45;;
72736;Laerm;60856;53.238;10.448;2023-07-16T02:11:38;55.05;54.13;56.21;;
72736;Laerm;60856;53.238;10.448;2023-07-16T02:14:03;55.05;53.81;56.14;;
72736;Laerm;60856;53.238;10.448;2023-07-16T02:16:28;55.02;53.96;56.26;;
72736;Laerm;60856;53.238;10.448;2023-07-16T02:18:54;55.03;53.96;56.13;;
72736;Laerm;60856;53.238;10.448;2023-07-16T02:21:19;55.05;54.01;56.40;;
72736;Laerm;60856;53.238;10.448;2023-07-16T02:23:44;55.03;53.96;56.27;;
72736;Laerm;60856;53.238;10.448;2023-07-16T02:26:09;55.01;54.04;56.06;;
72736;Laerm;60856;53.238;10.448;2023-07-16T02:28:34;55.02;53.88;56.15;;
72736;Laerm;60856;53.238;10.448;2023-07-16T02:31:00;54.99;54.00;56.06;;
72736;Laerm;60856;53.238;10.448;2023-07-16T02:33:26;55.00;54.06;55.99;;
72736;Laerm;60856;53.238;10.448;2023-07-16T02:35:51;55.00;53.94;56.18;;
72736;Laerm;60856;53.238;10.448;2023-07-16T02:38:16;55.02;54.00;56.22;;
72736;Laerm;60856;53.238;10.448;2023-07-16T02:40:42;55.00;54.00;56.00;;
72736;Laerm;60856;53.238;10.448;2023-07-16T02:43:08;55.01;53.95;56.33;;
72736;Laerm;60856;53.238;10.448;2023-07-16T02:45:33;55.00;53.99;56.30;;
72736;Laerm;60856;53.238;10.448;2023-07-16T02:47:58;54.96;53.83;56.18;;
72736;Laerm;60856;53.238;10.448;2023-07-16T02:50:23;54.93;53.86;56.01;;
72736;Laerm;60856;53.238;10.448;2023-07-16T02:52:49;54.94;53.78;55.98;;
72736;Laerm;60856;53.238;10.448;2023-07-16T02:55:14;54.92;53.68;56.13;;
72736;Laerm;60856;53.238;10.448;2023-07-16T02:57:39;54.87;53.63;55.91;;
72736;Laerm;60856;53.238;10.448;2023-07-16T03:00:05;54.87;53.71;55.82;;
72736;Laerm;60856;53.238;10.448;2023-07-16T03:02:30;54.89;53.85;55.90;;
72736;Laerm;60856;53.238;10.448;2023-07-16T03:04:55;54.89;53.75;55.99;;
72736;Laerm;60856;53.238;10.448;2023-07-16T03:07:20;54.88;53.87;55.95;;
72736;Laerm;60856;53.238;10.448;2023-07-16T03:09:46;54.88;53.94;55.94;;
72736;Laerm;60856;53.238;10.448;2023-07-16T03:12:11;54.89;53.84;56.33;;
72736;Laerm;60856;53.238;10.448;2023-07-16T03:14:36;54.88;53.61;55.86;;
72736;Laerm;60856;53.238;10.448;2023-07-16T03:17:01;54.88;53.91;55.99;;
72736;Laerm;60856;53.238;10.448;2023-07-16T03:19:27;54.88;53.79;56.07;;
72736;Laerm;60856;53.238;10.448;2023-07-16T03:21:52;54.88;53.79;56.21;;
72736;Laerm;60856;53.238;10.448;2023-07-16T03:24:17;54.88;53.93;55.99;;
72736;Laerm;60856;53.238;10.448;2023-07-16T03:26:42;54.87;53.92;56.10;;
72736;Laerm;60856;53.238;10.448;2023-07-16T03:29:08;54.86;53.76;56.00;;
72736;Laerm;60856;53.238;10.448;2023-07-16T03:31:33;54.87;53.69;56.00;;
72736;Laerm;60856;53.238;10.448;2023-07-16T03:33:58;54.86;53.76;55.90;;
72736;Laerm;60856;53.238;10.448;2023-07-16T03:36:23;54.86;53.80;55.90;;
72736;Laerm;60856;53.238;10.448;2023-07-16T03:38:48;54.88;53.69;56.08;;
72736;Laerm;60856;53.238;10.448;2023-07-16T03:41:14;54.89;53.69;55.99;;
72736;Laerm;60856;53.238;10.448;2023-07-16T03:43:39;54.88;53.83;56.13;;
72736;Laerm;60856;53.238;10.448;2023-07-16T03:46:04;54.86;53.62;56.14;;
72736;Laerm;60856;53.238;10.448;2023-07-16T03:48:32;54.86;53.81;55.99;;
72736;Laerm;60856;53.238;10.448;2023-07-16T03:50:57;54.87;53.85;55.97;;
72736;Laerm;60856;53.238;10.448;2023-07-16T03:53:22;54.88;53.81;56.11;;
72736;Laerm;60856;53.238;10.448;2023-07-16T03:55:47;54.89;53.91;55.93;;
72736;Laerm;60856;53.238;10.448;2023-07-16T03:58:13;54.90;53.84;56.16;;
72736;Laerm;60856;53.238;10.448;2023-07-16T04:00:38;54.90;53.79;56.01;;
72736;Laerm;60856;53.238;10.448;2023-07-16T04:03:05;54.91;53.88;55.95;;
72736;Laerm;60856;53.238;10.448;2023-07-16T04:05:30;54.94;53.89;55.97;;
72736;Laerm;60856;53.238;10.448;2023-07-16T04:07:56;54.97;53.81;56.12;;
72736;Laerm;60856;53.238;10.448;2023-07-16T04:10:21;55.01;53.97;56.16;;
72736;Laerm;60856;53.238;10.448;2023-07-16T04:12:46;55.07;54.06;56.41;;
72736;Laerm;60856;53.238;10.448;2023-07-16T04:15:11;55.05;53.96;56.12;;
72736;Laerm;60856;53.238;10.448;2023-07-16T04:17:37;54.97;53.77;56.03;;
72736;Laerm;60856;53.238;10.448;2023-07-16T04:20:02;54.94;53.95;55.93;;
72736;Laerm;60856;53.238;10.448;2023-07-16T04:22:28;54.94;53.71;55.99;;
72736;Laerm;60856;53.238;10.448;2023-07-16T04:24:53;54.95;53.82;56.17;;
72736;Laerm;60856;53.238;10.448;2023-07-16T04:27:18;54.95;53.85;56.01;;
72736;Laerm;60856;53.238;10.448;2023-07-16T04:32:46;55.11;53.89;56.63;;
72736;Laerm;60856;53.238;10.448;2023-07-16T04:35:11;55.29;54.23;56.30;;
72736;Laerm;60856;53.238;10.448;2023-07-16T04:37:37;55.40;54.36;56.49;;
72736;Laerm;60856;53.238;10.448;2023-07-16T04:40:02;55.32;54.14;56.58;;
72736;Laerm;60856;53.238;10.448;2023-07-16T04:42:29;55.29;54.29;56.56;;
72736;Laerm;60856;53.238;10.448;2023-07-16T04:44:54;55.26;54.23;56.19;;
72736;Laerm;60856;53.238;10.448;2023-07-16T04:47:19;55.23;54.16;56.49;;
72736;Laerm;60856;53.238;10.448;2023-07-16T04:49:45;55.19;54.17;56.34;;
72736;Laerm;60856;53.238;10.448;2023-07-16T04:52:10;55.33;54.21;56.48;;
72736;Laerm;60856;53.238;10.448;2023-07-16T04:54:38;55.88;54.69;57.21;;
72736;Laerm;60856;53.238;10.448;2023-07-16T04:57:03;56.75;55.24;58.38;;
72736;Laerm;60856;53.238;10.448;2023-07-16T04:59:29;57.35;55.75;58.77;;
72736;Laerm;60856;53.238;10.448;2023-07-16T05:01:54;56.29;55.08;58.09;;
72736;Laerm;60856;53.238;10.448;2023-07-16T05:04:19;55.92;54.90;56.89;;
72736;Laerm;60856;53.238;10.448;2023-07-16T05:06:44;55.95;54.92;57.00;;
72736;Laerm;60856;53.238;10.448;2023-07-16T05:09:10;57.40;55.23;58.77;;
72736;Laerm;60856;53.238;10.448;2023-07-16T05:11:35;57.40;56.08;58.61;;
72736;Laerm;60856;53.238;10.448;2023-07-16T05:14:02;57.07;55.95;58.55;;
72736;Laerm;60856;53.238;10.448;2023-07-16T05:16:27;56.84;55.74;58.24;;
72736;Laerm;60856;53.238;10.448;2023-07-16T05:18:53;56.52;55.47;57.89;;
72736;Laerm;60856;53.238;10.448;2023-07-16T05:21:18;56.33;55.30;57.68;;
72736;Laerm;60856;53.238;10.448;2023-07-16T05:23:43;56.29;55.17;57.37;;
72736;Laerm;60856;53.238;10.448;2023-07-16T05:26:08;56.33;55.18;57.36;;
72736;Laerm;60856;53.238;10.448;2023-07-16T05:28:33;56.32;54.90;57.61;;
72736;Laerm;60856;53.238;10.448;2023-07-16T05:30:59;56.31;55.29;57.43;;
72736;Laerm;60856;53.238;10.448;2023-07-16T05:33:25;56.28;55.14;57.37;;
72736;Laerm;60856;53.238;10.448;2023-07-16T05:35:50;56.35;55.19;57.34;;
72736;Laerm;60856;53.238;10.448;2023-07-16T05:38:15;56.20;55.05;57.26;;
72736;Laerm;60856;53.238;10.448;2023-07-16T05:40:40;56.24;55.13;57.30;;
72736;Laerm;60856;53.238;10.448;2023-07-16T05:43:06;56.23;55.14;57.18;;
72736;Laerm;60856;53.238;10.448;2023-07-16T05:45:31;55.45;54.22;56.74;;
72736;Laerm;60856;53.238;10.448;2023-07-16T05:47:56;55.19;53.95;56.94;;
72736;Laerm;60856;53.238;10.448;2023-07-16T05:50:22;54.87;53.54;56.64;;
72736;Laerm;60856;53.238;10.448;2023-07-16T05:52:47;54.06;52.71;55.45;;
72736;Laerm;60856;53.238;10.448;2023-07-16T05:55:13;54.07;52.54;55.54;;
72736;Laerm;60856;53.238;10.448;2023-07-16T05:57:38;53.67;52.53;54.94;;
72736;Laerm;60856;53.238;10.448;2023-07-16T06:00:04;53.65;52.42;54.87;;
72736;Laerm;60856;53.238;10.448;2023-07-16T06:02:29;53.61;52.34;54.90;;
72736;Laerm;60856;53.238;10.448;2023-07-16T06:04:55;54.07;52.33;56.01;;
72736;Laerm;60856;53.238;10.448;2023-07-16T06:07:20;54.66;52.72;56.45;;
72736;Laerm;60856;53.238;10.448;2023-07-16T06:09:45;55.95;54.14;57.97;;
72736;Laerm;60856;53.238;10.448;2023-07-16T06:12:10;57.41;54.68;59.72;;
72736;Laerm;60856;53.238;10.448;2023-07-16T06:14:36;56.76;53.50;58.70;;
72736;Laerm;60856;53.238;10.448;2023-07-16T06:17:01;57.62;55.24;59.88;;
72736;Laerm;60856;53.238;10.448;2023-07-16T06:19:27;57.40;55.03;59.91;;
72736;Laerm;60856;53.238;10.448;2023-07-16T06:21:52;59.73;56.98;61.78;;
72736;Laerm;60856;53.238;10.448;2023-07-16T06:27:20;59.76;54.68;61.59;;
72736;Laerm;60856;53.238;10.448;2023-07-16T06:29:45;60.43;58.97;61.80;;
72736;Laerm;60856;53.238;10.448;2023-07-16T06:32:11;60.29;57.90;61.67;;
72736;Laerm;60856;53.238;10.448;2023-07-16T06:34:36;61.50;53.12;63.71;;
72736;Laerm;60856;53.238;10.448;2023-07-16T06:37:01;62.10;53.38;66.98;;
72736;Laerm;60856;53.238;10.448;2023-07-16T06:39:26;60.95;53.17;66.85;;
72736;Laerm;60856;53.238;10.448;2023-07-16T06:41:52;59.99;53.09;66.98;;
72736;Laerm;60856;53.238;10.448;2023-07-16T06:44:17;58.70;53.00;67.07;;
72736;Laerm;60856;53.238;10.448;2023-07-16T06:46:42;60.33;52.80;66.86;;
72736;Laerm;60856;53.238;10.448;2023-07-16T06:49:07;60.52;52.95;66.93;;
72736;Laerm;60856;53.238;10.448;2023-07-16T06:51:33;57.01;53.39;58.47;;
72736;Laerm;60856;53.238;10.448;2023-07-16T06:53:58;56.82;52.98;60.39;;
72736;Laerm;60856;53.238;10.448;2023-07-16T06:56:24;56.56;55.43;57.80;;
72736;Laerm;60856;53.238;10.448;2023-07-16T06:58:49;56.10;55.17;57.13;;
72736;Laerm;60856;53.238;10.448;2023-07-16T07:01:14;60.22;52.72;67.52;;
72736;Laerm;60856;53.238;10.448;2023-07-16T07:03:40;58.74;52.44;67.11;;
72736;Laerm;60856;53.238;10.448;2023-07-16T07:06:05;61.13;52.63;67.27;;
72736;Laerm;60856;53.238;10.448;2023-07-16T07:08:30;60.72;52.74;67.55;;
72736;Laerm;60856;53.238;10.448;2023-07-16T07:10:56;58.54;52.59;67.37;;
72736;Laerm;60856;53.238;10.448;2023-07-16T07:13:21;56.54;55.26;57.55;;
72736;Laerm;60856;53.238;10.448;2023-07-16T07:15:46;60.38;52.70;67.35;;
72736;Laerm;60856;53.238;10.448;2023-07-16T07:18:12;60.98;52.53;67.31;;
72736;Laerm;60856;53.238;10.448;2023-07-16T07:20:37;56.45;55.45;57.56;;
72736;Laerm;60856;53.238;10.448;2023-07-16T07:23:03;56.13;55.11;57.01;;
72736;Laerm;60856;53.238;10.448;2023-07-16T07:25:30;55.90;54.91;57.04;;
72736;Laerm;60856;53.238;10.448;2023-07-16T07:27:55;56.15;54.82;58.14;;
72736;Laerm;60856;53.238;10.448;2023-07-16T07:30:20;55.94;54.82;57.11;;
72736;Laerm;60856;53.238;10.448;2023-07-16T07:35:48;55.09;51.95;58.97;;
72736;Laerm;60856;53.238;10.448;2023-07-16T07:38:13;61.26;56.72;62.93;;
72736;Laerm;60856;53.238;10.448;2023-07-16T07:40:39;61.31;52.51;63.10;;
72736;Laerm;60856;53.238;10.448;2023-07-16T07:43:04;62.46;61.04;64.37;;
72736;Laerm;60856;53.238;10.448;2023-07-16T07:45:29;64.81;61.29;67.04;;
72736;Laerm;60856;53.238;10.448;2023-07-16T07:47:54;63.34;53.22;67.03;;
72736;Laerm;60856;53.238;10.448;2023-07-16T07:50:20;63.99;53.28;67.29;;
72736;Laerm;60856;53.238;10.448;2023-07-16T07:52:45;59.03;52.94;66.90;;
72736;Laerm;60856;53.238;10.448;2023-07-16T07:55:10;57.07;56.03;58.20;;
72736;Laerm;60856;53.238;10.448;2023-07-16T07:57:35;57.27;55.93;58.54;;
72736;Laerm;60856;53.238;10.448;2023-07-16T08:03:03;57.00;55.79;58.08;;
72736;Laerm;60856;53.238;10.448;2023-07-16T08:05:29;56.59;55.41;57.63;;
72736;Laerm;60856;53.238;10.448;2023-07-16T08:07:54;56.79;55.65;58.00;;
72736;Laerm;60856;53.238;10.448;2023-07-16T08:10:20;56.69;55.61;58.06;;
72736;Laerm;60856;53.238;10.448;2023-07-16T08:12:45;56.43;55.51;57.34;;
72736;Laerm;60856;53.238;10.448;2023-07-16T08:15:11;56.33;55.36;57.35;;
72736;Laerm;60856;53.238;10.448;2023-07-16T08:17:42;56.58;55.22;57.89;;
72736;Laerm;60856;53.238;10.448;2023-07-16T08:20:08;56.56;55.39;57.59;;
72736;Laerm;60856;53.238;10.448;2023-07-16T08:22:33;56.71;55.64;57.81;;
72736;Laerm;60856;53.238;10.448;2023-07-16T08:24:58;56.68;55.56;57.74;;
72736;Laerm;60856;53.238;10.448;2023-07-16T08:27:24;56.66;55.70;57.82;;
72736;Laerm;60856;53.238;10.448;2023-07-16T08:29:49;56.67;55.52;57.75;;
72736;Laerm;60856;53.238;10.448;2023-07-16T08:32:14;56.82;55.85;57.88;;
72736;Laerm;60856;53.238;10.448;2023-07-16T08:34:39;56.77;55.85;57.75;;
72736;Laerm;60856;53.238;10.448;2023-07-16T08:37:05;56.72;55.76;57.73;;
72736;Laerm;60856;53.238;10.448;2023-07-16T08:39:30;56.63;55.51;57.69;;
72736;Laerm;60856;53.238;10.448;2023-07-16T08:41:56;56.93;55.64;57.93;;
72736;Laerm;60856;53.238;10.448;2023-07-16T08:44:21;56.83;55.77;57.97;;
72736;Laerm;60856;53.238;10.448;2023-07-16T08:46:47;57.06;55.73;58.09;;
72736;Laerm;60856;53.238;10.448;2023-07-16T08:49:12;56.89;55.93;57.88;;
72736;Laerm;60856;53.238;10.448;2023-07-16T08:51:37;56.84;55.78;57.82;;
72736;Laerm;60856;53.238;10.448;2023-07-16T08:54:02;56.69;55.71;57.77;;
72736;Laerm;60856;53.238;10.448;2023-07-16T08:56:28;56.48;55.58;57.55;;
72736;Laerm;60856;53.238;10.448;2023-07-16T08:58:54;56.36;55.24;57.71;;
72736;Laerm;60856;53.238;10.448;2023-07-16T09:01:21;56.33;55.39;57.31;;
72736;Laerm;60856;53.238;10.448;2023-07-16T09:03:46;56.83;55.39;58.03;;
72736;Laerm;60856;53.238;10.448;2023-07-16T09:06:11;57.04;56.02;57.98;;
72736;Laerm;60856;53.238;10.448;2023-07-16T09:08:36;56.92;55.91;57.90;;
72736;Laerm;60856;53.238;10.448;2023-07-16T09:11:02;56.84;55.63;57.88;;
72736;Laerm;60856;53.238;10.448;2023-07-16T09:13:28;56.83;55.82;57.71;;
72736;Laerm;60856;53.238;10.448;2023-07-16T09:15:54;56.68;55.43;57.75;;
72736;Laerm;60856;53.238;10.448;2023-07-16T09:18:20;56.51;55.49;57.46;;
72736;Laerm;60856;53.238;10.448;2023-07-16T09:20:46;56.36;55.39;57.32;;
72736;Laerm;60856;53.238;10.448;2023-07-16T09:23:11;56.43;55.36;57.51;;
72736;Laerm;60856;53.238;10.448;2023-07-16T09:25:36;56.67;55.63;57.94;;
72736;Laerm;60856;53.238;10.448;2023-07-16T09:28:04;57.01;55.96;57.89;;
72736;Laerm;60856;53.238;10.448;2023-07-16T09:30:31;56.92;55.62;57.96;;
72736;Laerm;60856;53.238;10.448;2023-07-16T09:32:57;56.87;55.82;57.95;;
72736;Laerm;60856;53.238;10.448;2023-07-16T09:35:22;56.85;55.93;57.65;;
72736;Laerm;60856;53.238;10.448;2023-07-16T09:37:47;56.60;55.40;57.76;;
72736;Laerm;60856;53.238;10.448;2023-07-16T09:40:13;56.59;55.52;57.72;;
72736;Laerm;60856;53.238;10.448;2023-07-16T09:42:42;56.75;55.36;58.00;;
72736;Laerm;60856;53.238;10.448;2023-07-16T09:45:17;56.90;55.79;57.89;;
72736;Laerm;60856;53.238;10.448;2023-07-16T09:47:43;56.77;55.70;57.60;;
72736;Laerm;60856;53.238;10.448;2023-07-16T09:50:08;56.70;55.65;57.66;;
72736;Laerm;60856;53.238;10.448;2023-07-16T09:52:34;56.67;55.62;57.68;;
72736;Laerm;60856;53.238;10.448;2023-07-16T09:55:00;56.62;55.61;57.56;;
72736;Laerm;60856;53.238;10.448;2023-07-16T09:57:26;56.59;55.57;57.57;;
72736;Laerm;60856;53.238;10.448;2023-07-16T09:59:52;56.60;55.60;57.62;;
72736;Laerm;60856;53.238;10.448;2023-07-16T10:02:18;56.66;55.73;57.65;;
72736;Laerm;60856;53.238;10.448;2023-07-16T10:04:45;56.73;55.42;57.82;;
72736;Laerm;60856;53.238;10.448;2023-07-16T10:07:23;56.66;55.47;58.04;;
72736;Laerm;60856;53.238;10.448;2023-07-16T10:09:52;56.78;55.62;57.86;;
72736;Laerm;60856;53.238;10.448;2023-07-16T10:12:19;56.85;55.81;57.79;;
72736;Laerm;60856;53.238;10.448;2023-07-16T10:14:51;56.84;55.78;57.83;;
72736;Laerm;60856;53.238;10.448;2023-07-16T10:19:59;56.74;55.79;57.76;;
72736;Laerm;60856;53.238;10.448;2023-07-16T10:22:37;56.72;55.55;57.81;;
72736;Laerm;60856;53.238;10.448;2023-07-16T10:25:24;56.73;55.68;57.68;;
72736;Laerm;60856;53.238;10.448;2023-07-16T10:27:49;56.71;55.45;57.74;;
72736;Laerm;60856;53.238;10.448;2023-07-16T10:30:15;56.67;55.39;57.92;;
72736;Laerm;60856;53.238;10.448;2023-07-16T10:32:40;56.65;55.68;57.73;;
72736;Laerm;60856;53.238;10.448;2023-07-16T10:35:06;56.63;55.42;57.91;;
72736;Laerm;60856;53.238;10.448;2023-07-16T10:37:32;56.61;55.68;57.50;;
72736;Laerm;60856;53.238;10.448;2023-07-16T10:39:58;56.60;55.63;57.76;;
72736;Laerm;60856;53.238;10.448;2023-07-16T10:42:24;56.56;55.43;57.61;;
72736;Laerm;60856;53.238;10.448;2023-07-16T10:44:50;56.67;55.50;57.63;;
72736;Laerm;60856;53.238;10.448;2023-07-16T10:47:31;56.64;55.60;57.70;;
72736;Laerm;60856;53.238;10.448;2023-07-16T10:49:57;56.62;55.33;57.78;;
72736;Laerm;60856;53.238;10.448;2023-07-16T10:52:22;56.63;55.69;57.64;;
72736;Laerm;60856;53.238;10.448;2023-07-16T10:54:48;56.62;55.69;57.79;;
72736;Laerm;60856;53.238;10.448;2023-07-16T10:57:15;56.60;55.22;57.60;;
72736;Laerm;60856;53.238;10.448;2023-07-16T11:02:44;56.45;55.40;57.69;;
72736;Laerm;60856;53.238;10.448;2023-07-16T11:05:11;56.55;55.25;57.56;;
72736;Laerm;60856;53.238;10.448;2023-07-16T11:07:36;56.60;55.24;57.77;;
72736;Laerm;60856;53.238;10.448;2023-07-16T11:10:01;56.35;55.13;57.65;;
72736;Laerm;60856;53.238;10.448;2023-07-16T11:12:28;56.65;55.66;57.75;;
72736;Laerm;60856;53.238;10.448;2023-07-16T11:14:53;56.52;55.50;57.68;;
72736;Laerm;60856;53.238;10.448;2023-07-16T11:17:19;56.80;55.24;57.83;;
72736;Laerm;60856;53.238;10.448;2023-07-16T11:19:48;56.75;55.58;57.77;;
72736;Laerm;60856;53.238;10.448;2023-07-16T11:22:14;56.69;55.57;57.84;;
72736;Laerm;60856;53.238;10.448;2023-07-16T11:24:44;56.92;55.83;57.88;;
72736;Laerm;60856;53.238;10.448;2023-07-16T11:27:17;56.81;55.50;57.98;;
72736;Laerm;60856;53.238;10.448;2023-07-16T11:29:50;56.78;55.44;57.86;;
72736;Laerm;60856;53.238;10.448;2023-07-16T11:34:57;56.88;55.84;57.84;;
72736;Laerm;60856;53.238;10.448;2023-07-16T11:37:26;56.78;55.79;57.85;;
72736;Laerm;60856;53.238;10.448;2023-07-16T11:40:08;56.63;55.63;57.63;;
72736;Laerm;60856;53.238;10.448;2023-07-16T11:42:37;56.85;55.51;57.86;;
72736;Laerm;60856;53.238;10.448;2023-07-16T11:45:03;56.73;55.65;58.16;;
72736;Laerm;60856;53.238;10.448;2023-07-16T11:47:29;56.59;55.60;57.76;;
72736;Laerm;60856;53.238;10.448;2023-07-16T11:49:55;56.82;55.66;57.89;;
72736;Laerm;60856;53.238;10.448;2023-07-16T11:52:21;56.69;55.75;57.89;;
72736;Laerm;60856;53.238;10.448;2023-07-16T11:54:46;56.71;55.71;57.74;;
72736;Laerm;60856;53.238;10.448;2023-07-16T11:57:12;56.91;55.77;57.99;;
72736;Laerm;60856;53.238;10.448;2023-07-16T11:59:37;56.82;55.79;57.84;;
72736;Laerm;60856;53.238;10.448;2023-07-16T12:02:02;56.64;55.63;57.95;;
72736;Laerm;60856;53.238;10.448;2023-07-16T12:04:28;56.69;55.46;57.70;;
72736;Laerm;60856;53.238;10.448;2023-07-16T12:06:53;56.87;55.88;57.85;;
72736;Laerm;60856;53.238;10.448;2023-07-16T12:09:18;56.68;55.60;57.66;;
72736;Laerm;60856;53.238;10.448;2023-07-16T12:11:43;56.77;55.74;57.91;;
72736;Laerm;60856;53.238;10.448;2023-07-16T12:14:09;56.79;55.89;57.80;;
72736;Laerm;60856;53.238;10.448;2023-07-16T12:16:34;56.65;55.66;57.49;;
72736;Laerm;60856;53.238;10.448;2023-07-16T12:18:59;56.62;55.65;57.64;;
72736;Laerm;60856;53.238;10.448;2023-07-16T12:21:25;56.72;55.58;57.70;;
72736;Laerm;60856;53.238;10.448;2023-07-16T12:23:50;56.61;55.70;57.54;;
72736;Laerm;60856;53.238;10.448;2023-07-16T12:26:15;56.60;55.57;57.65;;
72736;Laerm;60856;53.238;10.448;2023-07-16T12:28:40;56.74;55.73;57.81;;
72736;Laerm;60856;53.238;10.448;2023-07-16T12:31:06;56.83;55.70;57.83;;
72736;Laerm;60856;53.238;10.448;2023-07-16T12:33:31;56.73;55.58;57.58;;
72736;Laerm;60856;53.238;10.448;2023-07-16T12:35:56;56.66;55.64;57.63;;
72736;Laerm;60856;53.238;10.448;2023-07-16T12:38:21;56.69;55.65;57.77;;
72736;Laerm;60856;53.238;10.448;2023-07-16T12:40:47;56.71;55.76;57.69;;
72736;Laerm;60856;53.238;10.448;2023-07-16T12:43:13;56.69;55.74;57.62;;
72736;Laerm;60856;53.238;10.448;2023-07-16T12:45:38;56.76;55.78;57.74;;
72736;Laerm;60856;53.238;10.448;2023-07-16T12:48:03;56.80;55.73;57.90;;
72736;Laerm;60856;53.238;10.448;2023-07-16T12:53:32;56.85;55.78;57.91;;
72736;Laerm;60856;53.238;10.448;2023-07-16T12:55:57;56.77;55.77;57.73;;
72736;Laerm;60856;53.238;10.448;2023-07-16T12:58:23;56.86;55.80;57.91;;
72736;Laerm;60856;53.238;10.448;2023-07-16T13:00:48;56.90;55.84;57.89;;
72736;Laerm;60856;53.238;10.448;2023-07-16T13:03:13;56.74;55.66;57.83;;
72736;Laerm;60856;53.238;10.448;2023-07-16T13:05:41;56.70;55.53;57.61;;
72736;Laerm;60856;53.238;10.448;2023-07-16T13:08:06;56.73;55.77;57.75;;
72736;Laerm;60856;53.238;10.448;2023-07-16T13:10:32;56.71;55.63;57.70;;
72736;Laerm;60856;53.238;10.448;2023-07-16T13:12:57;56.64;55.44;57.57;;
72736;Laerm;60856;53.238;10.448;2023-07-16T13:15:22;56.63;55.56;57.62;;
72736;Laerm;60856;53.238;10.448;2023-07-16T13:17:47;56.69;55.47;57.64;;
72736;Laerm;60856;53.238;10.448;2023-07-16T13:20:13;56.71;55.69;57.84;;
72736;Laerm;60856;53.238;10.448;2023-07-16T13:22:38;56.69;55.74;57.71;;
72736;Laerm;60856;53.238;10.448;2023-07-16T13:25:04;56.70;55.52;57.68;;
72736;Laerm;60856;53.238;10.448;2023-07-16T13:27:31;56.71;55.59;57.79;;
72736;Laerm;60856;53.238;10.448;2023-07-16T13:29:57;56.72;55.72;57.85;;
72736;Laerm;60856;53.238;10.448;2023-07-16T13:32:22;56.79;55.54;57.91;;
72736;Laerm;60856;53.238;10.448;2023-07-16T13:34:47;56.77;55.72;57.74;;
72736;Laerm;60856;53.238;10.448;2023-07-16T13:37:14;56.75;55.54;57.93;;
72736;Laerm;60856;53.238;10.448;2023-07-16T13:39:39;56.71;55.71;57.61;;
72736;Laerm;60856;53.238;10.448;2023-07-16T13:42:04;56.69;55.40;57.78;;
72736;Laerm;60856;53.238;10.448;2023-07-16T13:44:30;56.66;55.63;57.82;;
72736;Laerm;60856;53.238;10.448;2023-07-16T13:46:56;56.72;55.68;57.71;;
72736;Laerm;60856;53.238;10.448;2023-07-16T13:52:24;56.70;55.59;57.71;;
72736;Laerm;60856;53.238;10.448;2023-07-16T13:54:49;56.71;55.64;57.61;;
72736;Laerm;60856;53.238;10.448;2023-07-16T13:57:14;56.74;55.79;57.75;;
72736;Laerm;60856;53.238;10.448;2023-07-16T13:59:39;56.75;55.79;57.71;;